Codis 14 — FGG9188 — position and weather

sailwx.info

Track history (hours):
 
Tides and Currents Weather Stations Pressure Air Temp Water Temp Dewpoint Dewpoint Depression Visibility Wind Speed Wind Dir Waves Ship Positions

Codis 14

Last reported at 2017-Aug-20 16:06 UTC. Time now 2017-Sep-19 22:42 UTC.
Position N 47°29' W 003°06'.
Warning: this ship's position is 30 days out of date.

Length 6 m.

Type: SAR. MMSI: 227061930.

Date/timePositionNaut miles runAvg speedWind from/ knotsBaromVisibWave heightAir tempDewpointWater temp
2017-Aug-20 16:06N 47°29' W 003°06'1 7.0
2017-Aug-20 16:00N 47°30' W 003°05'2 4.2
2017-Aug-20 15:30N 47°31' W 003°07'4 7.3
2017-Aug-20 15:00N 47°28' W 003°09'2 4.3
2017-Aug-20 14:30N 47°28' W 003°06'1 2.1
2017-Aug-20 13:49N 47°29' W 003°06'0 0.2
2017-Aug-20 13:04N 47°29' W 003°06'0 2.5
2017-Aug-20 13:00N 47°29' W 003°06'0 0.0
2017-Aug-19 16:22N 47°29' W 003°06'814.8
2017-Aug-19 15:50N 47°27' W 002°55'0 1.1
2017-Aug-19 15:28N 47°27' W 002°54'2 2.1
2017-Aug-19 14:43N 47°27' W 002°57'7 9.2
2017-Aug-19 14:00N 47°29' W 003°06'0 0.5
2017-Aug-19 13:30N 47°29' W 003°05'0 0.0
2017-Aug-18 16:42N 47°29' W 003°06'0 0.5
2017-Aug-18 16:20N 47°29' W 003°06'0 0.3
2017-Aug-18 16:00N 47°29' W 003°06'2 3.2
2017-Aug-18 15:30N 47°28' W 003°08'612.2
2017-Aug-18 15:00N 47°34' W 003°05'5 9.0
2017-Aug-18 14:28N 47°29' W 003°06'0 0.0
2017-Aug-18 13:19N 47°29' W 003°06'0 0.5
2017-Aug-18 13:00N 47°29' W 003°06'0 0.5
2017-Aug-18 12:30N 47°29' W 003°06'0 0.0
2017-Aug-17 16:56N 47°29' W 003°06'612.4
2017-Aug-17 16:25N 47°34' W 002°60'3 8.3
2017-Aug-17 16:00N 47°32' W 003°03'2 4.2
2017-Aug-17 15:30N 47°32' W 003°06'2 4.7
2017-Aug-17 14:59N 47°34' W 003°05'1 1.3
2017-Aug-17 14:30N 47°34' W 003°04'713.1
2017-Aug-17 14:00N 47°28' W 003°03'2 3.1
2017-Aug-17 13:30N 47°29' W 003°05'1 0.0
2017-Aug-16 15:55N 47°29' W 003°06'2 4.2
2017-Aug-16 15:30N 47°31' W 003°04'4 6.9
2017-Aug-16 14:58N 47°27' W 003°02'0 0.6
2017-Aug-16 14:30N 47°27' W 003°02'2 3.2
2017-Aug-16 14:00N 47°28' W 003°04'2 0.1
2017-Aug-15 17:39N 47°29' W 003°06'317.6
2017-Aug-15 17:30N 47°30' W 003°02'5 9.7
2017-Aug-15 17:00N 47°32' W 002°56'612.3
2017-Aug-15 16:30N 47°26' W 002°59'510.7
2017-Aug-15 16:00N 47°29' W 003°06'5 9.4
2017-Aug-15 15:29N 47°34' W 003°05'0 0.7
2017-Aug-15 14:59N 47°34' W 003°05'1 2.3
2017-Aug-15 14:30N 47°34' W 003°03'5 9.6
2017-Aug-15 13:58N 47°29' W 003°02'2 5.3
2017-Aug-15 13:30N 47°29' W 003°05'0 0.0
2017-Aug-14 18:14N 47°29' W 003°06'5 2.5
2017-Aug-14 16:18N 47°34' W 003°05'0 0.0
2017-Aug-14 15:58N 47°34' W 003°05'0 0.4
2017-Aug-14 15:28N 47°34' W 003°04'1115.8
2017-Aug-14 14:48N 47°24' W 003°00'3 9.8
2017-Aug-14 14:30N 47°26' W 003°02'1 2.4
2017-Aug-14 14:00N 47°27' W 003°03'3 0.1
2017-Aug-13 16:04N 47°29' W 003°06'0 4.2
2017-Aug-13 16:00N 47°29' W 003°06'3 5.4
2017-Aug-13 15:30N 47°32' W 003°05'2 4.1
2017-Aug-13 14:59N 47°34' W 003°04'0 0.6
2017-Aug-13 14:30N 47°34' W 003°04'3 3.5
2017-Aug-13 13:31N 47°31' W 003°08'0 0.8
2017-Aug-13 13:30N 47°31' W 003°08'2 0.1
2017-Aug-12 16:41N 47°29' W 003°06'2 8.4
2017-Aug-12 16:30N 47°31' W 003°05'2 3.6
2017-Aug-12 16:00N 47°32' W 003°08'0 0.5
2017-Aug-12 15:30N 47°32' W 003°08'0 0.4
2017-Aug-12 15:00N 47°32' W 003°08'2 3.4
2017-Aug-12 14:30N 47°30' W 003°06'1 2.6
2017-Aug-12 14:00N 47°31' W 003°08'2 3.5
2017-Aug-12 13:30N 47°30' W 003°06'1 0.0
2017-Aug-11 14:46N 47°29' W 003°06'0 0.3
2017-Aug-11 13:59N 47°29' W 003°06'0 0.1
2017-Aug-11 12:26N 47°29' W 003°06'  
Track history (hours):
 
Tides and Currents Weather Stations Pressure Air Temp Water Temp Dewpoint Dewpoint Depression Visibility Wind Speed Wind Dir Waves Ship Positions

Codis 14

Last reported at 2017-Aug-20 16:06 UTC. Time now 2017-Sep-19 22:42 UTC.
Position N 47°29' W 003°06'.
Warning: this ship's position is 30 days out of date.

Length 6 m.

Type: SAR. MMSI: 227061930.

Date/timePositionNaut miles runAvg speedWind from/ knotsBaromVisibWave heightAir tempDewpointWater temp
2017-Aug-20 16:06N 47°29' W 003°06'1 7.0
2017-Aug-20 16:00N 47°30' W 003°05'2 4.2
2017-Aug-20 15:30N 47°31' W 003°07'4 7.3
2017-Aug-20 15:00N 47°28' W 003°09'2 4.3
2017-Aug-20 14:30N 47°28' W 003°06'1 2.1
2017-Aug-20 13:49N 47°29' W 003°06'0 0.2
2017-Aug-20 13:04N 47°29' W 003°06'0 2.5
2017-Aug-20 13:00N 47°29' W 003°06'0 0.0
2017-Aug-19 16:22N 47°29' W 003°06'814.8
2017-Aug-19 15:50N 47°27' W 002°55'0 1.1
2017-Aug-19 15:28N 47°27' W 002°54'2 2.1
2017-Aug-19 14:43N 47°27' W 002°57'7 9.2
2017-Aug-19 14:00N 47°29' W 003°06'0 0.5
2017-Aug-19 13:30N 47°29' W 003°05'0 0.0
2017-Aug-18 16:42N 47°29' W 003°06'0 0.5
2017-Aug-18 16:20N 47°29' W 003°06'0 0.3
2017-Aug-18 16:00N 47°29' W 003°06'2 3.2
2017-Aug-18 15:30N 47°28' W 003°08'612.2
2017-Aug-18 15:00N 47°34' W 003°05'5 9.0
2017-Aug-18 14:28N 47°29' W 003°06'0 0.0
2017-Aug-18 13:19N 47°29' W 003°06'0 0.5
2017-Aug-18 13:00N 47°29' W 003°06'0 0.5
2017-Aug-18 12:30N 47°29' W 003°06'0 0.0
2017-Aug-17 16:56N 47°29' W 003°06'612.4
2017-Aug-17 16:25N 47°34' W 002°60'3 8.3
2017-Aug-17 16:00N 47°32' W 003°03'2 4.2
2017-Aug-17 15:30N 47°32' W 003°06'2 4.7
2017-Aug-17 14:59N 47°34' W 003°05'1 1.3
2017-Aug-17 14:30N 47°34' W 003°04'713.1
2017-Aug-17 14:00N 47°28' W 003°03'2 3.1
2017-Aug-17 13:30N 47°29' W 003°05'1 0.0
2017-Aug-16 15:55N 47°29' W 003°06'2 4.2
2017-Aug-16 15:30N 47°31' W 003°04'4 6.9
2017-Aug-16 14:58N 47°27' W 003°02'0 0.6
2017-Aug-16 14:30N 47°27' W 003°02'2 3.2
2017-Aug-16 14:00N 47°28' W 003°04'2 0.1
2017-Aug-15 17:39N 47°29' W 003°06'317.6
2017-Aug-15 17:30N 47°30' W 003°02'5 9.7
2017-Aug-15 17:00N 47°32' W 002°56'612.3
2017-Aug-15 16:30N 47°26' W 002°59'510.7
2017-Aug-15 16:00N 47°29' W 003°06'5 9.4
2017-Aug-15 15:29N 47°34' W 003°05'0 0.7
2017-Aug-15 14:59N 47°34' W 003°05'1 2.3
2017-Aug-15 14:30N 47°34' W 003°03'5 9.6
2017-Aug-15 13:58N 47°29' W 003°02'2 5.3
2017-Aug-15 13:30N 47°29' W 003°05'0 0.0
2017-Aug-14 18:14N 47°29' W 003°06'5 2.5
2017-Aug-14 16:18N 47°34' W 003°05'0 0.0
2017-Aug-14 15:58N 47°34' W 003°05'0 0.4
2017-Aug-14 15:28N 47°34' W 003°04'1115.8
2017-Aug-14 14:48N 47°24' W 003°00'3 9.8
2017-Aug-14 14:30N 47°26' W 003°02'1 2.4
2017-Aug-14 14:00N 47°27' W 003°03'3 0.1
2017-Aug-13 16:04N 47°29' W 003°06'0 4.2
2017-Aug-13 16:00N 47°29' W 003°06'3 5.4
2017-Aug-13 15:30N 47°32' W 003°05'2 4.1
2017-Aug-13 14:59N 47°34' W 003°04'0 0.6
2017-Aug-13 14:30N 47°34' W 003°04'3 3.5
2017-Aug-13 13:31N 47°31' W 003°08'0 0.8
2017-Aug-13 13:30N 47°31' W 003°08'2 0.1
2017-Aug-12 16:41N 47°29' W 003°06'2 8.4
2017-Aug-12 16:30N 47°31' W 003°05'2 3.6
2017-Aug-12 16:00N 47°32' W 003°08'0 0.5
2017-Aug-12 15:30N 47°32' W 003°08'0 0.4
2017-Aug-12 15:00N 47°32' W 003°08'2 3.4
2017-Aug-12 14:30N 47°30' W 003°06'1 2.6
2017-Aug-12 14:00N 47°31' W 003°08'2 3.5
2017-Aug-12 13:30N 47°30' W 003°06'1 0.0
2017-Aug-11 14:46N 47°29' W 003°06'0 0.3
2017-Aug-11 13:59N 47°29' W 003°06'0 0.1
2017-Aug-11 12:26N 47°29' W 003°06'  

Dump ship's entire track history